sensor_id;sensor_type;location;lat;lon;timestamp;P1;durP1;ratioP1;P2;durP2;ratioP2
2049;SDS011;8478;49.208;8.806;2023-07-31T00:02:06;3.57;;;3.23;;
2049;SDS011;8478;49.208;8.806;2023-07-31T00:04:32;3.60;;;3.30;;
2049;SDS011;8478;49.208;8.806;2023-07-31T00:06:57;4.83;;;3.30;;
2049;SDS011;8478;49.208;8.806;2023-07-31T00:09:23;4.00;;;3.60;;
2049;SDS011;8478;49.208;8.806;2023-07-31T00:11:49;3.90;;;3.10;;
2049;SDS011;8478;49.208;8.806;2023-07-31T00:14:14;5.17;;;3.27;;
2049;SDS011;8478;49.208;8.806;2023-07-31T00:16:40;3.77;;;3.47;;
2049;SDS011;8478;49.208;8.806;2023-07-31T00:19:05;3.63;;;3.00;;
2049;SDS011;8478;49.208;8.806;2023-07-31T00:21:31;4.53;;;3.60;;
2049;SDS011;8478;49.208;8.806;2023-07-31T00:23:57;4.60;;;3.77;;
2049;SDS011;8478;49.208;8.806;2023-07-31T00:26:22;3.73;;;3.37;;
2049;SDS011;8478;49.208;8.806;2023-07-31T00:28:48;4.70;;;3.80;;
2049;SDS011;8478;49.208;8.806;2023-07-31T00:31:14;3.97;;;3.35;;
2049;SDS011;8478;49.208;8.806;2023-07-31T00:33:39;3.33;;;3.10;;
2049;SDS011;8478;49.208;8.806;2023-07-31T00:36:05;3.67;;;3.00;;
2049;SDS011;8478;49.208;8.806;2023-07-31T00:38:30;4.03;;;3.73;;
2049;SDS011;8478;49.208;8.806;2023-07-31T00:40:56;5.23;;;3.23;;
2049;SDS011;8478;49.208;8.806;2023-07-31T00:43:22;4.37;;;3.87;;
2049;SDS011;8478;49.208;8.806;2023-07-31T00:45:48;3.35;;;2.53;;
2049;SDS011;8478;49.208;8.806;2023-07-31T00:48:13;4.10;;;3.77;;
2049;SDS011;8478;49.208;8.806;2023-07-31T00:50:39;4.17;;;3.20;;
2049;SDS011;8478;49.208;8.806;2023-07-31T00:53:05;3.73;;;3.43;;
2049;SDS011;8478;49.208;8.806;2023-07-31T00:55:31;4.00;;;3.70;;
2049;SDS011;8478;49.208;8.806;2023-07-31T00:57:57;4.80;;;3.73;;
2049;SDS011;8478;49.208;8.806;2023-07-31T01:00:22;3.47;;;3.17;;
2049;SDS011;8478;49.208;8.806;2023-07-31T01:02:49;4.63;;;3.70;;
2049;SDS011;8478;49.208;8.806;2023-07-31T01:05:15;3.90;;;3.60;;
2049;SDS011;8478;49.208;8.806;2023-07-31T01:07:45;3.97;;;3.13;;
2049;SDS011;8478;49.208;8.806;2023-07-31T01:12:48;3.90;;;3.50;;
2049;SDS011;8478;49.208;8.806;2023-07-31T01:15:18;3.70;;;3.40;;
2049;SDS011;8478;49.208;8.806;2023-07-31T01:17:44;3.55;;;2.90;;
2049;SDS011;8478;49.208;8.806;2023-07-31T01:20:11;3.80;;;3.40;;
2049;SDS011;8478;49.208;8.806;2023-07-31T01:28:56;4.10;;;3.80;;
2049;SDS011;8478;49.208;8.806;2023-07-31T01:31:29;4.10;;;3.70;;
2049;SDS011;8478;49.208;8.806;2023-07-31T01:33:56;4.23;;;3.70;;
2049;SDS011;8478;49.208;8.806;2023-07-31T01:36:25;3.57;;;3.27;;
2049;SDS011;8478;49.208;8.806;2023-07-31T01:38:51;4.43;;;3.07;;
2049;SDS011;8478;49.208;8.806;2023-07-31T01:41:20;3.83;;;3.53;;
2049;SDS011;8478;49.208;8.806;2023-07-31T01:43:45;4.50;;;4.03;;
2049;SDS011;8478;49.208;8.806;2023-07-31T01:46:11;5.70;;;3.87;;
2049;SDS011;8478;49.208;8.806;2023-07-31T01:48:37;3.97;;;3.73;;
2049;SDS011;8478;49.208;8.806;2023-07-31T01:51:03;3.83;;;3.53;;
2049;SDS011;8478;49.208;8.806;2023-07-31T01:53:30;3.83;;;3.53;;
2049;SDS011;8478;49.208;8.806;2023-07-31T01:55:56;3.77;;;3.13;;
2049;SDS011;8478;49.208;8.806;2023-07-31T01:58:22;3.60;;;3.30;;
2049;SDS011;8478;49.208;8.806;2023-07-31T02:00:47;4.00;;;3.60;;
2049;SDS011;8478;49.208;8.806;2023-07-31T02:03:13;3.57;;;3.27;;
2049;SDS011;8478;49.208;8.806;2023-07-31T02:05:45;4.03;;;3.73;;
2049;SDS011;8478;49.208;8.806;2023-07-31T02:08:14;4.20;;;3.73;;
2049;SDS011;8478;49.208;8.806;2023-07-31T02:10:40;3.90;;;3.60;;
2049;SDS011;8478;49.208;8.806;2023-07-31T02:13:06;4.00;;;3.60;;
2049;SDS011;8478;49.208;8.806;2023-07-31T02:15:32;4.20;;;3.80;;
2049;SDS011;8478;49.208;8.806;2023-07-31T02:17:58;4.43;;;4.03;;
2049;SDS011;8478;49.208;8.806;2023-07-31T02:20:24;4.03;;;3.70;;
2049;SDS011;8478;49.208;8.806;2023-07-31T02:22:49;4.00;;;3.70;;
2049;SDS011;8478;49.208;8.806;2023-07-31T02:25:15;6.00;;;4.20;;
2049;SDS011;8478;49.208;8.806;2023-07-31T02:27:41;4.13;;;3.83;;
2049;SDS011;8478;49.208;8.806;2023-07-31T02:30:07;4.80;;;3.60;;
2049;SDS011;8478;49.208;8.806;2023-07-31T02:32:33;4.73;;;3.60;;
2049;SDS011;8478;49.208;8.806;2023-07-31T02:34:58;3.63;;;3.37;;
2049;SDS011;8478;49.208;8.806;2023-07-31T02:37:25;3.80;;;3.50;;
2049;SDS011;8478;49.208;8.806;2023-07-31T02:39:51;4.93;;;3.90;;
2049;SDS011;8478;49.208;8.806;2023-07-31T02:42:16;4.60;;;4.30;;
2049;SDS011;8478;49.208;8.806;2023-07-31T02:44:42;4.20;;;3.90;;
2049;SDS011;8478;49.208;8.806;2023-07-31T02:47:08;4.13;;;3.73;;
2049;SDS011;8478;49.208;8.806;2023-07-31T02:49:33;5.37;;;3.80;;
2049;SDS011;8478;49.208;8.806;2023-07-31T02:51:59;4.20;;;3.80;;
2049;SDS011;8478;49.208;8.806;2023-07-31T02:54:24;4.50;;;3.70;;
2049;SDS011;8478;49.208;8.806;2023-07-31T02:56:50;4.43;;;4.13;;
2049;SDS011;8478;49.208;8.806;2023-07-31T02:59:16;3.87;;;3.57;;
2049;SDS011;8478;49.208;8.806;2023-07-31T03:01:42;4.30;;;3.90;;
2049;SDS011;8478;49.208;8.806;2023-07-31T03:04:08;4.30;;;4.03;;
2049;SDS011;8478;49.208;8.806;2023-07-31T03:06:34;3.50;;;3.20;;
2049;SDS011;8478;49.208;8.806;2023-07-31T03:08:59;6.33;;;3.77;;
2049;SDS011;8478;49.208;8.806;2023-07-31T03:11:25;4.50;;;3.63;;
2049;SDS011;8478;49.208;8.806;2023-07-31T03:13:51;6.27;;;4.17;;
2049;SDS011;8478;49.208;8.806;2023-07-31T03:16:17;4.10;;;3.70;;
2049;SDS011;8478;49.208;8.806;2023-07-31T03:18:42;3.90;;;3.60;;
2049;SDS011;8478;49.208;8.806;2023-07-31T03:21:08;3.97;;;3.57;;
2049;SDS011;8478;49.208;8.806;2023-07-31T03:23:34;4.40;;;4.10;;
2049;SDS011;8478;49.208;8.806;2023-07-31T03:26:00;4.57;;;3.50;;
2049;SDS011;8478;49.208;8.806;2023-07-31T03:28:28;4.13;;;3.60;;
2049;SDS011;8478;49.208;8.806;2023-07-31T03:30:54;4.20;;;3.80;;
2049;SDS011;8478;49.208;8.806;2023-07-31T03:33:20;3.80;;;3.50;;
2049;SDS011;8478;49.208;8.806;2023-07-31T03:35:45;4.37;;;3.97;;
2049;SDS011;8478;49.208;8.806;2023-07-31T03:38:11;4.83;;;4.33;;
2049;SDS011;8478;49.208;8.806;2023-07-31T03:40:37;4.30;;;3.90;;
2049;SDS011;8478;49.208;8.806;2023-07-31T03:43:03;5.63;;;5.07;;
2049;SDS011;8478;49.208;8.806;2023-07-31T03:45:28;4.60;;;4.20;;
2049;SDS011;8478;49.208;8.806;2023-07-31T03:47:54;4.27;;;3.83;;
2049;SDS011;8478;49.208;8.806;2023-07-31T03:50:20;4.80;;;4.30;;
2049;SDS011;8478;49.208;8.806;2023-07-31T03:52:46;3.80;;;3.50;;
2049;SDS011;8478;49.208;8.806;2023-07-31T03:55:11;4.47;;;4.00;;
2049;SDS011;8478;49.208;8.806;2023-07-31T03:57:37;4.03;;;3.73;;
2049;SDS011;8478;49.208;8.806;2023-07-31T04:00:03;4.40;;;3.70;;
2049;SDS011;8478;49.208;8.806;2023-07-31T04:02:29;4.37;;;4.00;;
2049;SDS011;8478;49.208;8.806;2023-07-31T04:04:55;4.10;;;3.80;;
2049;SDS011;8478;49.208;8.806;2023-07-31T04:07:20;5.20;;;4.10;;
2049;SDS011;8478;49.208;8.806;2023-07-31T04:09:46;4.30;;;3.90;;
2049;SDS011;8478;49.208;8.806;2023-07-31T04:12:11;5.00;;;4.50;;
2049;SDS011;8478;49.208;8.806;2023-07-31T04:14:37;4.30;;;3.90;;
2049;SDS011;8478;49.208;8.806;2023-07-31T04:17:03;4.40;;;3.70;;
2049;SDS011;8478;49.208;8.806;2023-07-31T04:19:28;5.30;;;3.77;;
2049;SDS011;8478;49.208;8.806;2023-07-31T04:21:54;3.88;;;3.10;;
2049;SDS011;8478;49.208;8.806;2023-07-31T04:24:20;5.60;;;3.97;;
2049;SDS011;8478;49.208;8.806;2023-07-31T04:26:52;4.60;;;4.20;;
2049;SDS011;8478;49.208;8.806;2023-07-31T04:29:19;4.33;;;4.03;;
2049;SDS011;8478;49.208;8.806;2023-07-31T04:31:45;4.20;;;3.87;;
2049;SDS011;8478;49.208;8.806;2023-07-31T04:34:10;5.97;;;5.47;;
2049;SDS011;8478;49.208;8.806;2023-07-31T04:36:39;4.03;;;3.73;;
2049;SDS011;8478;49.208;8.806;2023-07-31T04:39:05;4.13;;;3.83;;
2049;SDS011;8478;49.208;8.806;2023-07-31T04:41:30;4.30;;;4.00;;
2049;SDS011;8478;49.208;8.806;2023-07-31T04:43:56;3.70;;;2.78;;
2049;SDS011;8478;49.208;8.806;2023-07-31T04:46:22;4.77;;;4.37;;
2049;SDS011;8478;49.208;8.806;2023-07-31T04:48:47;4.40;;;4.00;;
2049;SDS011;8478;49.208;8.806;2023-07-31T04:51:16;4.60;;;4.20;;
2049;SDS011;8478;49.208;8.806;2023-07-31T04:53:41;6.20;;;4.63;;
2049;SDS011;8478;49.208;8.806;2023-07-31T04:56:07;5.23;;;4.00;;
2049;SDS011;8478;49.208;8.806;2023-07-31T04:58:32;6.00;;;4.23;;
2049;SDS011;8478;49.208;8.806;2023-07-31T05:00:58;4.40;;;4.10;;
2049;SDS011;8478;49.208;8.806;2023-07-31T05:03:24;5.77;;;4.37;;
2049;SDS011;8478;49.208;8.806;2023-07-31T05:05:50;4.17;;;3.77;;
2049;SDS011;8478;49.208;8.806;2023-07-31T05:08:16;5.00;;;4.50;;
2049;SDS011;8478;49.208;8.806;2023-07-31T05:10:42;5.03;;;4.30;;
2049;SDS011;8478;49.208;8.806;2023-07-31T05:13:08;4.87;;;4.47;;
2049;SDS011;8478;49.208;8.806;2023-07-31T05:15:34;4.57;;;4.17;;
2049;SDS011;8478;49.208;8.806;2023-07-31T05:18:00;4.50;;;4.20;;
2049;SDS011;8478;49.208;8.806;2023-07-31T05:20:25;4.53;;;4.20;;
2049;SDS011;8478;49.208;8.806;2023-07-31T05:22:52;4.63;;;4.23;;
2049;SDS011;8478;49.208;8.806;2023-07-31T05:25:18;4.40;;;4.10;;
2049;SDS011;8478;49.208;8.806;2023-07-31T05:27:44;4.87;;;3.80;;
2049;SDS011;8478;49.208;8.806;2023-07-31T05:30:09;4.70;;;4.30;;
2049;SDS011;8478;49.208;8.806;2023-07-31T05:32:35;5.10;;;4.27;;
2049;SDS011;8478;49.208;8.806;2023-07-31T05:35:01;4.87;;;4.47;;
2049;SDS011;8478;49.208;8.806;2023-07-31T05:37:26;4.87;;;4.13;;
2049;SDS011;8478;49.208;8.806;2023-07-31T05:39:52;4.30;;;3.83;;
2049;SDS011;8478;49.208;8.806;2023-07-31T05:42:18;4.40;;;4.00;;
2049;SDS011;8478;49.208;8.806;2023-07-31T05:44:43;4.53;;;3.87;;
2049;SDS011;8478;49.208;8.806;2023-07-31T05:47:09;4.27;;;3.97;;
2049;SDS011;8478;49.208;8.806;2023-07-31T05:49:35;4.70;;;4.30;;
2049;SDS011;8478;49.208;8.806;2023-07-31T05:52:00;5.33;;;4.10;;
2049;SDS011;8478;49.208;8.806;2023-07-31T05:54:26;3.97;;;3.67;;
2049;SDS011;8478;49.208;8.806;2023-07-31T05:56:52;6.43;;;4.27;;
2049;SDS011;8478;49.208;8.806;2023-07-31T05:59:17;4.87;;;4.40;;
2049;SDS011;8478;49.208;8.806;2023-07-31T06:01:43;4.27;;;4.00;;
2049;SDS011;8478;49.208;8.806;2023-07-31T06:04:09;4.50;;;4.10;;
2049;SDS011;8478;49.208;8.806;2023-07-31T06:06:34;4.77;;;4.37;;
2049;SDS011;8478;49.208;8.806;2023-07-31T06:09:00;4.50;;;4.20;;
2049;SDS011;8478;49.208;8.806;2023-07-31T06:11:25;4.53;;;4.03;;
2049;SDS011;8478;49.208;8.806;2023-07-31T06:13:51;4.40;;;4.00;;
2049;SDS011;8478;49.208;8.806;2023-07-31T06:16:17;4.33;;;4.03;;
2049;SDS011;8478;49.208;8.806;2023-07-31T06:18:43;4.20;;;3.90;;
2049;SDS011;8478;49.208;8.806;2023-07-31T06:21:09;4.13;;;3.73;;
2049;SDS011;8478;49.208;8.806;2023-07-31T06:23:35;4.47;;;4.07;;
2049;SDS011;8478;49.208;8.806;2023-07-31T06:26:01;4.67;;;4.27;;
2049;SDS011;8478;49.208;8.806;2023-07-31T06:28:31;5.10;;;4.27;;
2049;SDS011;8478;49.208;8.806;2023-07-31T06:30:57;4.10;;;3.80;;
2049;SDS011;8478;49.208;8.806;2023-07-31T06:33:23;3.97;;;3.67;;
2049;SDS011;8478;49.208;8.806;2023-07-31T06:35:49;4.50;;;4.13;;
2049;SDS011;8478;49.208;8.806;2023-07-31T06:38:16;5.03;;;3.77;;
2049;SDS011;8478;49.208;8.806;2023-07-31T06:40:43;3.97;;;3.77;;
2049;SDS011;8478;49.208;8.806;2023-07-31T06:43:09;5.20;;;4.23;;
2049;SDS011;8478;49.208;8.806;2023-07-31T06:45:35;4.50;;;4.10;;
2049;SDS011;8478;49.208;8.806;2023-07-31T06:48:01;4.03;;;3.73;;
2049;SDS011;8478;49.208;8.806;2023-07-31T06:50:28;4.67;;;4.20;;
2049;SDS011;8478;49.208;8.806;2023-07-31T06:52:57;4.60;;;4.30;;
2049;SDS011;8478;49.208;8.806;2023-07-31T06:55:23;4.10;;;3.70;;
2049;SDS011;8478;49.208;8.806;2023-07-31T06:57:51;4.40;;;4.00;;
2049;SDS011;8478;49.208;8.806;2023-07-31T07:00:18;4.50;;;4.10;;
2049;SDS011;8478;49.208;8.806;2023-07-31T07:02:45;4.90;;;4.40;;
2049;SDS011;8478;49.208;8.806;2023-07-31T07:05:14;4.10;;;3.80;;
2049;SDS011;8478;49.208;8.806;2023-07-31T07:07:41;4.33;;;3.93;;
2049;SDS011;8478;49.208;8.806;2023-07-31T07:10:07;4.03;;;3.73;;
2049;SDS011;8478;49.208;8.806;2023-07-31T07:12:33;4.60;;;4.20;;
2049;SDS011;8478;49.208;8.806;2023-07-31T07:14:59;4.40;;;4.10;;
2049;SDS011;8478;49.208;8.806;2023-07-31T07:17:26;4.43;;;4.13;;
2049;SDS011;8478;49.208;8.806;2023-07-31T07:19:53;5.10;;;4.70;;
2049;SDS011;8478;49.208;8.806;2023-07-31T07:22:19;3.65;;;3.30;;
2049;SDS011;8478;49.208;8.806;2023-07-31T07:24:44;4.17;;;3.87;;
2049;SDS011;8478;49.208;8.806;2023-07-31T07:27:10;4.30;;;3.97;;
2049;SDS011;8478;49.208;8.806;2023-07-31T07:29:37;5.00;;;4.17;;
2049;SDS011;8478;49.208;8.806;2023-07-31T07:32:03;4.90;;;4.50;;
2049;SDS011;8478;49.208;8.806;2023-07-31T07:34:30;4.70;;;4.20;;
2049;SDS011;8478;49.208;8.806;2023-07-31T07:36:55;4.60;;;4.20;;
2049;SDS011;8478;49.208;8.806;2023-07-31T07:39:21;4.67;;;4.37;;
2049;SDS011;8478;49.208;8.806;2023-07-31T07:41:47;4.50;;;4.20;;
2049;SDS011;8478;49.208;8.806;2023-07-31T07:44:13;3.93;;;3.50;;
2049;SDS011;8478;49.208;8.806;2023-07-31T07:46:39;4.37;;;4.03;;
2049;SDS011;8478;49.208;8.806;2023-07-31T07:49:05;4.50;;;4.10;;
2049;SDS011;8478;49.208;8.806;2023-07-31T07:51:31;4.57;;;4.27;;
2049;SDS011;8478;49.208;8.806;2023-07-31T07:53:59;4.40;;;4.10;;
2049;SDS011;8478;49.208;8.806;2023-07-31T07:56:26;5.10;;;4.60;;
2049;SDS011;8478;49.208;8.806;2023-07-31T07:58:52;5.07;;;4.57;;
2049;SDS011;8478;49.208;8.806;2023-07-31T08:01:19;5.20;;;4.70;;
2049;SDS011;8478;49.208;8.806;2023-07-31T08:03:44;4.40;;;4.10;;
2049;SDS011;8478;49.208;8.806;2023-07-31T08:06:10;4.73;;;4.43;;
2049;SDS011;8478;49.208;8.806;2023-07-31T08:08:36;4.23;;;3.93;;
2049;SDS011;8478;49.208;8.806;2023-07-31T08:11:02;4.57;;;4.27;;
2049;SDS011;8478;49.208;8.806;2023-07-31T08:13:28;4.80;;;4.40;;
2049;SDS011;8478;49.208;8.806;2023-07-31T08:15:54;5.00;;;4.50;;
2049;SDS011;8478;49.208;8.806;2023-07-31T08:18:20;5.13;;;4.63;;
2049;SDS011;8478;49.208;8.806;2023-07-31T08:20:46;4.90;;;4.40;;
2049;SDS011;8478;49.208;8.806;2023-07-31T08:23:11;4.43;;;4.03;;
2049;SDS011;8478;49.208;8.806;2023-07-31T08:25:37;5.00;;;4.60;;
2049;SDS011;8478;49.208;8.806;2023-07-31T08:28:04;5.50;;;5.00;;
2049;SDS011;8478;49.208;8.806;2023-07-31T08:30:30;5.17;;;4.77;;
2049;SDS011;8478;49.208;8.806;2023-07-31T08:32:56;4.93;;;4.53;;
2049;SDS011;8478;49.208;8.806;2023-07-31T08:35:21;5.43;;;4.63;;
2049;SDS011;8478;49.208;8.806;2023-07-31T08:37:47;5.87;;;4.73;;
2049;SDS011;8478;49.208;8.806;2023-07-31T08:40:13;5.07;;;4.67;;
2049;SDS011;8478;49.208;8.806;2023-07-31T08:42:45;4.70;;;4.40;;
2049;SDS011;8478;49.208;8.806;2023-07-31T08:45:18;4.97;;;4.57;;
2049;SDS011;8478;49.208;8.806;2023-07-31T08:47:47;4.87;;;4.47;;
2049;SDS011;8478;49.208;8.806;2023-07-31T08:50:15;4.97;;;4.57;;
2049;SDS011;8478;49.208;8.806;2023-07-31T08:52:42;5.10;;;4.80;;
2049;SDS011;8478;49.208;8.806;2023-07-31T08:55:08;5.17;;;4.70;;
2049;SDS011;8478;49.208;8.806;2023-07-31T08:57:36;5.37;;;4.87;;
2049;SDS011;8478;49.208;8.806;2023-07-31T09:00:06;4.37;;;4.07;;
2049;SDS011;8478;49.208;8.806;2023-07-31T09:05:20;5.30;;;4.22;;
2049;SDS011;8478;49.208;8.806;2023-07-31T09:07:47;5.00;;;4.60;;
2049;SDS011;8478;49.208;8.806;2023-07-31T09:10:14;5.20;;;4.70;;
2049;SDS011;8478;49.208;8.806;2023-07-31T09:12:40;5.87;;;5.03;;
2049;SDS011;8478;49.208;8.806;2023-07-31T09:15:06;6.43;;;4.73;;
2049;SDS011;8478;49.208;8.806;2023-07-31T09:17:34;5.10;;;4.70;;
2049;SDS011;8478;49.208;8.806;2023-07-31T09:20:17;4.97;;;4.57;;
2049;SDS011;8478;49.208;8.806;2023-07-31T09:22:44;5.23;;;4.83;;
2049;SDS011;8478;49.208;8.806;2023-07-31T09:25:15;4.47;;;4.17;;
2049;SDS011;8478;49.208;8.806;2023-07-31T09:30:18;5.10;;;4.70;;
2049;SDS011;8478;49.208;8.806;2023-07-31T09:32:44;4.87;;;4.43;;
2049;SDS011;8478;49.208;8.806;2023-07-31T09:37:59;5.00;;;4.50;;
2049;SDS011;8478;49.208;8.806;2023-07-31T09:40:34;5.47;;;5.03;;
2049;SDS011;8478;49.208;8.806;2023-07-31T09:43:03;5.20;;;4.90;;
2049;SDS011;8478;49.208;8.806;2023-07-31T09:45:30;5.87;;;5.10;;
2049;SDS011;8478;49.208;8.806;2023-07-31T09:47:59;5.73;;;5.23;;
2049;SDS011;8478;49.208;8.806;2023-07-31T09:50:25;6.00;;;5.20;;
2049;SDS011;8478;49.208;8.806;2023-07-31T09:52:51;8.10;;;5.30;;
2049;SDS011;8478;49.208;8.806;2023-07-31T09:55:17;5.93;;;5.43;;
2049;SDS011;8478;49.208;8.806;2023-07-31T09:57:45;11.53;;;4.47;;
2049;SDS011;8478;49.208;8.806;2023-07-31T10:00:13;4.63;;;4.10;;
2049;SDS011;8478;49.208;8.806;2023-07-31T10:02:41;6.43;;;5.03;;
2049;SDS011;8478;49.208;8.806;2023-07-31T10:05:09;6.33;;;5.63;;
2049;SDS011;8478;49.208;8.806;2023-07-31T10:07:37;7.43;;;5.73;;
2049;SDS011;8478;49.208;8.806;2023-07-31T10:10:07;5.40;;;4.90;;
2049;SDS011;8478;49.208;8.806;2023-07-31T10:12:36;5.10;;;4.60;;
2049;SDS011;8478;49.208;8.806;2023-07-31T10:15:03;5.38;;;4.30;;
2049;SDS011;8478;49.208;8.806;2023-07-31T10:17:29;5.53;;;4.40;;
2049;SDS011;8478;49.208;8.806;2023-07-31T10:19:57;5.10;;;4.60;;
2049;SDS011;8478;49.208;8.806;2023-07-31T10:22:26;5.70;;;5.10;;
2049;SDS011;8478;49.208;8.806;2023-07-31T10:24:54;5.80;;;5.30;;
2049;SDS011;8478;49.208;8.806;2023-07-31T10:27:22;6.23;;;5.63;;
2049;SDS011;8478;49.208;8.806;2023-07-31T10:29:48;5.83;;;5.23;;
2049;SDS011;8478;49.208;8.806;2023-07-31T10:32:15;6.10;;;5.47;;
2049;SDS011;8478;49.208;8.806;2023-07-31T10:34:42;5.93;;;4.97;;
2049;SDS011;8478;49.208;8.806;2023-07-31T10:37:25;5.50;;;5.07;;
2049;SDS011;8478;49.208;8.806;2023-07-31T10:40:17;7.00;;;5.20;;
2049;SDS011;8478;49.208;8.806;2023-07-31T10:45:13;5.20;;;4.80;;
2049;SDS011;8478;49.208;8.806;2023-07-31T10:47:48;5.57;;;5.07;;
2049;SDS011;8478;49.208;8.806;2023-07-31T10:52:50;5.83;;;5.33;;
2049;SDS011;8478;49.208;8.806;2023-07-31T10:57:58;6.20;;;5.63;;
2049;SDS011;8478;49.208;8.806;2023-07-31T11:00:44;5.28;;;4.60;;
2049;SDS011;8478;49.208;8.806;2023-07-31T11:03:11;7.53;;;5.20;;
2049;SDS011;8478;49.208;8.806;2023-07-31T11:05:44;6.17;;;5.27;;
2049;SDS011;8478;49.208;8.806;2023-07-31T11:08:28;6.03;;;5.43;;
2049;SDS011;8478;49.208;8.806;2023-07-31T11:13:26;5.80;;;5.20;;
2049;SDS011;8478;49.208;8.806;2023-07-31T11:16:16;7.70;;;5.37;;
2049;SDS011;8478;49.208;8.806;2023-07-31T11:18:43;8.37;;;5.60;;
2049;SDS011;8478;49.208;8.806;2023-07-31T11:21:13;6.30;;;5.00;;
2049;SDS011;8478;49.208;8.806;2023-07-31T11:23:40;5.20;;;4.70;;
2049;SDS011;8478;49.208;8.806;2023-07-31T11:26:06;6.17;;;5.67;;
2049;SDS011;8478;49.208;8.806;2023-07-31T11:28:32;8.00;;;5.97;;
2049;SDS011;8478;49.208;8.806;2023-07-31T11:30:59;5.97;;;5.43;;
2049;SDS011;8478;49.208;8.806;2023-07-31T11:33:25;6.75;;;5.28;;
2049;SDS011;8478;49.208;8.806;2023-07-31T11:35:51;7.00;;;6.30;;
2049;SDS011;8478;49.208;8.806;2023-07-31T11:38:38;8.00;;;5.33;;
2049;SDS011;8478;49.208;8.806;2023-07-31T11:41:03;5.47;;;5.07;;
2049;SDS011;8478;49.208;8.806;2023-07-31T11:43:33;6.57;;;6.07;;
2049;SDS011;8478;49.208;8.806;2023-07-31T11:45:59;5.47;;;5.07;;
2049;SDS011;8478;49.208;8.806;2023-07-31T11:48:34;5.80;;;5.30;;
2049;SDS011;8478;49.208;8.806;2023-07-31T11:51:05;6.13;;;5.13;;
2049;SDS011;8478;49.208;8.806;2023-07-31T11:53:53;7.47;;;5.47;;
2049;SDS011;8478;49.208;8.806;2023-07-31T11:56:21;5.72;;;5.22;;
2049;SDS011;8478;49.208;8.806;2023-07-31T11:58:49;9.40;;;6.33;;
2049;SDS011;8478;49.208;8.806;2023-07-31T12:01:19;13.93;;;6.37;;
2049;SDS011;8478;49.208;8.806;2023-07-31T12:03:46;12.13;;;6.13;;
2049;SDS011;8478;49.208;8.806;2023-07-31T12:06:12;9.00;;;6.40;;
2049;SDS011;8478;49.208;8.806;2023-07-31T12:08:38;9.57;;;6.07;;
2049;SDS011;8478;49.208;8.806;2023-07-31T12:11:04;6.33;;;5.60;;
2049;SDS011;8478;49.208;8.806;2023-07-31T12:13:31;5.90;;;5.40;;
2049;SDS011;8478;49.208;8.806;2023-07-31T12:15:59;6.77;;;5.87;;
2049;SDS011;8478;49.208;8.806;2023-07-31T12:18:28;8.47;;;5.33;;
2049;SDS011;8478;49.208;8.806;2023-07-31T12:20:56;7.27;;;6.00;;
2049;SDS011;8478;49.208;8.806;2023-07-31T12:23:24;6.03;;;5.50;;
2049;SDS011;8478;49.208;8.806;2023-07-31T12:26:01;6.40;;;5.80;;
2049;SDS011;8478;49.208;8.806;2023-07-31T12:31:07;5.87;;;4.60;;
2049;SDS011;8478;49.208;8.806;2023-07-31T12:33:42;5.43;;;4.93;;
2049;SDS011;8478;49.208;8.806;2023-07-31T12:36:09;5.93;;;5.27;;
2049;SDS011;8478;49.208;8.806;2023-07-31T12:38:39;8.03;;;5.53;;
2049;SDS011;8478;49.208;8.806;2023-07-31T12:41:06;5.32;;;4.93;;
2049;SDS011;8478;49.208;8.806;2023-07-31T12:43:32;6.20;;;5.57;;
2049;SDS011;8478;49.208;8.806;2023-07-31T12:45:58;5.83;;;4.83;;
2049;SDS011;8478;49.208;8.806;2023-07-31T12:48:24;6.20;;;5.60;;
2049;SDS011;8478;49.208;8.806;2023-07-31T12:50:50;6.00;;;5.40;;
2049;SDS011;8478;49.208;8.806;2023-07-31T12:53:16;7.00;;;5.80;;
2049;SDS011;8478;49.208;8.806;2023-07-31T12:55:42;5.90;;;5.40;;
2049;SDS011;8478;49.208;8.806;2023-07-31T12:58:07;5.73;;;5.23;;
2049;SDS011;8478;49.208;8.806;2023-07-31T13:00:33;5.60;;;5.10;;
2049;SDS011;8478;49.208;8.806;2023-07-31T13:02:59;6.17;;;5.60;;
2049;SDS011;8478;49.208;8.806;2023-07-31T13:05:25;4.70;;;4.30;;
2049;SDS011;8478;49.208;8.806;2023-07-31T13:07:51;5.77;;;5.37;;
2049;SDS011;8478;49.208;8.806;2023-07-31T13:10:17;5.37;;;4.87;;
2049;SDS011;8478;49.208;8.806;2023-07-31T13:12:43;5.47;;;5.03;;
2049;SDS011;8478;49.208;8.806;2023-07-31T13:15:08;12.07;;;5.47;;
2049;SDS011;8478;49.208;8.806;2023-07-31T13:17:35;7.00;;;5.13;;
2049;SDS011;8478;49.208;8.806;2023-07-31T13:20:01;5.27;;;4.77;;
2049;SDS011;8478;49.208;8.806;2023-07-31T13:22:28;6.77;;;5.67;;
2049;SDS011;8478;49.208;8.806;2023-07-31T13:24:54;7.83;;;5.13;;
2049;SDS011;8478;49.208;8.806;2023-07-31T13:27:20;7.10;;;4.93;;
2049;SDS011;8478;49.208;8.806;2023-07-31T13:29:47;6.40;;;4.77;;
2049;SDS011;8478;49.208;8.806;2023-07-31T13:32:14;6.30;;;5.80;;
2049;SDS011;8478;49.208;8.806;2023-07-31T13:34:40;6.10;;;5.60;;
2049;SDS011;8478;49.208;8.806;2023-07-31T13:37:06;5.53;;;4.97;;
2049;SDS011;8478;49.208;8.806;2023-07-31T13:39:32;4.87;;;4.47;;
2049;SDS011;8478;49.208;8.806;2023-07-31T13:42:02;6.03;;;5.60;;
2049;SDS011;8478;49.208;8.806;2023-07-31T13:44:28;6.53;;;5.20;;
2049;SDS011;8478;49.208;8.806;2023-07-31T13:46:54;5.27;;;4.80;;
2049;SDS011;8478;49.208;8.806;2023-07-31T13:49:19;5.40;;;4.90;;
2049;SDS011;8478;49.208;8.806;2023-07-31T13:51:45;4.80;;;4.30;;
2049;SDS011;8478;49.208;8.806;2023-07-31T13:54:11;6.90;;;5.87;;
2049;SDS011;8478;49.208;8.806;2023-07-31T13:56:37;4.93;;;4.53;;
2049;SDS011;8478;49.208;8.806;2023-07-31T13:59:03;5.90;;;5.50;;
2049;SDS011;8478;49.208;8.806;2023-07-31T14:01:29;5.40;;;4.90;;
2049;SDS011;8478;49.208;8.806;2023-07-31T14:03:55;5.90;;;5.40;;
2049;SDS011;8478;49.208;8.806;2023-07-31T14:06:21;6.10;;;5.50;;
2049;SDS011;8478;49.208;8.806;2023-07-31T14:08:46;5.13;;;4.73;;
2049;SDS011;8478;49.208;8.806;2023-07-31T14:11:12;6.30;;;4.60;;
2049;SDS011;8478;49.208;8.806;2023-07-31T14:13:38;6.10;;;5.50;;
2049;SDS011;8478;49.208;8.806;2023-07-31T14:16:03;5.37;;;4.93;;
2049;SDS011;8478;49.208;8.806;2023-07-31T14:18:29;5.67;;;5.07;;
2049;SDS011;8478;49.208;8.806;2023-07-31T14:20:55;7.03;;;6.20;;
2049;SDS011;8478;49.208;8.806;2023-07-31T14:23:20;5.27;;;4.87;;
2049;SDS011;8478;49.208;8.806;2023-07-31T14:25:46;9.80;;;6.00;;
2049;SDS011;8478;49.208;8.806;2023-07-31T14:28:12;6.00;;;5.50;;
2049;SDS011;8478;49.208;8.806;2023-07-31T14:30:38;6.20;;;5.47;;
2049;SDS011;8478;49.208;8.806;2023-07-31T14:33:04;6.30;;;5.80;;
2049;SDS011;8478;49.208;8.806;2023-07-31T14:35:29;5.93;;;5.37;;
2049;SDS011;8478;49.208;8.806;2023-07-31T14:37:55;5.70;;;4.50;;
2049;SDS011;8478;49.208;8.806;2023-07-31T14:40:21;6.00;;;5.47;;
2049;SDS011;8478;49.208;8.806;2023-07-31T14:42:46;5.33;;;4.80;;
2049;SDS011;8478;49.208;8.806;2023-07-31T14:45:12;6.97;;;5.50;;
2049;SDS011;8478;49.208;8.806;2023-07-31T14:47:39;5.70;;;5.30;;
2049;SDS011;8478;49.208;8.806;2023-07-31T14:50:05;5.67;;;5.00;;
2049;SDS011;8478;49.208;8.806;2023-07-31T14:52:31;7.80;;;5.27;;
2049;SDS011;8478;49.208;8.806;2023-07-31T14:54:56;5.70;;;4.90;;
2049;SDS011;8478;49.208;8.806;2023-07-31T14:57:22;5.93;;;5.33;;
2049;SDS011;8478;49.208;8.806;2023-07-31T14:59:48;5.90;;;5.40;;
2049;SDS011;8478;49.208;8.806;2023-07-31T15:02:14;5.40;;;4.90;;
2049;SDS011;8478;49.208;8.806;2023-07-31T15:04:40;5.30;;;4.80;;
2049;SDS011;8478;49.208;8.806;2023-07-31T15:07:06;6.40;;;5.80;;
2049;SDS011;8478;49.208;8.806;2023-07-31T15:09:31;5.50;;;5.00;;
2049;SDS011;8478;49.208;8.806;2023-07-31T15:11:57;6.00;;;5.40;;
2049;SDS011;8478;49.208;8.806;2023-07-31T15:14:23;5.03;;;4.73;;
2049;SDS011;8478;49.208;8.806;2023-07-31T15:16:50;5.57;;;5.07;;
2049;SDS011;8478;49.208;8.806;2023-07-31T15:19:15;6.37;;;4.77;;
2049;SDS011;8478;49.208;8.806;2023-07-31T15:21:41;5.27;;;4.70;;
2049;SDS011;8478;49.208;8.806;2023-07-31T15:24:07;6.03;;;5.53;;
2049;SDS011;8478;49.208;8.806;2023-07-31T15:26:32;5.70;;;4.80;;
2049;SDS011;8478;49.208;8.806;2023-07-31T15:29:02;4.93;;;4.43;;
2049;SDS011;8478;49.208;8.806;2023-07-31T15:31:36;6.37;;;5.87;;
2049;SDS011;8478;49.208;8.806;2023-07-31T15:34:04;7.13;;;6.30;;
2049;SDS011;8478;49.208;8.806;2023-07-31T15:36:30;6.53;;;5.50;;
2049;SDS011;8478;49.208;8.806;2023-07-31T15:38:56;6.87;;;5.23;;
2049;SDS011;8478;49.208;8.806;2023-07-31T15:41:22;5.60;;;5.20;;
2049;SDS011;8478;49.208;8.806;2023-07-31T15:43:50;5.87;;;4.87;;